Time;durP1;ratioP1;P1;durP2;ratioP2;P2;SDS_P1;SDS_P2;PMS_P1;PMS_P2;Temp;Humidity;BMP_temperature;BMP_pressure;BME280_temperature;BME280_humidity;BME280_pressure;Samples;Min_cycle;Max_cycle;Signal;HPM_P1;HPM_P2
2021/12/09 00:01:22;;;;;;;17.50;5.82;;;;;;;0.65;91.73;100025.94;4989105;28;20031;-71
2021/12/09 00:03:49;;;;;;;19.15;6.18;;;;;;;0.69;92.49;100022.25;4986122;28;20105;-72
2021/12/09 00:06:18;;;;;;;22.27;5.85;;;;;;;0.80;92.02;100024.84;4992913;28;20591;-71
2021/12/09 00:08:43;;;;;;;25.77;7.80;;;;;;;0.71;91.78;100021.22;4991027;28;20211;-71
2021/12/09 00:11:09;;;;;;;17.58;6.90;;;;;;;0.74;91.80;100022.75;4989217;28;20025;-73
2021/12/09 00:13:35;;;;;;;20.25;6.47;;;;;;;0.70;91.91;100018.78;4988058;28;20529;-71
2021/12/09 00:16:01;;;;;;;23.90;6.65;;;;;;;0.59;91.76;100029.75;4982622;28;20034;-71
2021/12/09 00:18:27;;;;;;;25.05;6.82;;;;;;;0.52;92.32;100028.56;4962925;28;20115;-71
2021/12/09 00:20:52;;;;;;;16.95;6.95;;;;;;;0.47;92.82;100028.91;4983487;28;20038;-70
2021/12/09 00:23:19;;;;;;;15.88;5.78;;;;;;;0.41;92.64;100028.53;4984216;28;20081;-71
2021/12/09 00:25:44;;;;;;;20.77;6.07;;;;;;;0.38;92.10;100021.91;4980375;28;20108;-72
2021/12/09 00:28:10;;;;;;;9.68;5.20;;;;;;;0.33;92.68;100026.53;4973633;28;20030;-72
2021/12/09 00:30:36;;;;;;;22.23;7.05;;;;;;;0.31;92.92;100030.91;4964979;28;20039;-72
2021/12/09 00:33:04;;;;;;;21.92;6.38;;;;;;;0.25;92.46;100024.50;4979011;28;20046;-72
2021/12/09 00:35:41;;;;;;;19.05;5.72;;;;;;;0.22;92.94;100018.81;4976647;28;20031;-71
2021/12/09 00:38:09;;;;;;;17.42;5.70;;;;;;;0.18;93.02;100021.56;4985465;28;20049;-71
2021/12/09 00:40:36;;;;;;;10.43;5.40;;;;;;;0.16;92.79;100022.59;4985998;28;20041;-71
2021/12/09 00:43:03;;;;;;;17.98;6.50;;;;;;;0.14;93.09;100025.25;4988301;28;20038;-71
2021/12/09 00:45:29;;;;;;;21.13;6.55;;;;;;;0.13;93.23;100021.09;4984800;28;20039;-71
2021/12/09 00:47:54;;;;;;;23.25;6.55;;;;;;;0.11;92.75;100022.91;4986899;28;20113;-72
2021/12/09 00:50:21;;;;;;;17.10;6.13;;;;;;;0.12;93.07;100021.19;4985266;28;20184;-71
2021/12/09 00:52:48;;;;;;;16.30;5.88;;;;;;;0.11;92.76;100022.91;4979922;28;20034;-71
2021/12/09 00:55:15;;;;;;;18.92;7.28;;;;;;;0.07;92.42;100030.91;4967072;28;20031;-70
2021/12/09 00:57:41;;;;;;;16.92;5.13;;;;;;;0.04;92.50;100020.91;4985900;28;20499;-72
2021/12/09 01:00:27;;;;;;;17.63;5.40;;;;;;;0.03;93.04;100021.84;4976992;28;20045;-71
2021/12/09 01:02:52;;;;;;;17.38;5.22;;;;;;;-0.01;92.96;100023.78;4982915;28;20026;-70
2021/12/09 01:05:18;;;;;;;16.25;5.32;;;;;;;-0.03;92.74;100026.44;4989637;28;20059;-72
2021/12/09 01:07:44;;;;;;;13.85;5.05;;;;;;;-0.03;93.12;100030.72;4984524;28;20114;-70
2021/12/09 01:10:13;;;;;;;15.57;5.60;;;;;;;-0.05;92.88;100028.28;4990631;28;20026;-71
2021/12/09 01:12:39;;;;;;;12.50;5.65;;;;;;;-0.08;93.19;100027.69;4984448;28;20041;-71
2021/12/09 01:15:07;;;;;;;17.38;5.43;;;;;;;-0.09;92.88;100038.81;4985851;28;20022;-71
2021/12/09 01:17:33;;;;;;;21.60;6.38;;;;;;;-0.12;93.31;100041.56;4982868;28;20023;-71
2021/12/09 01:19:59;;;;;;;21.65;5.53;;;;;;;-0.13;93.27;100040.75;4984940;28;20023;-72
2021/12/09 01:22:33;;;;;;;14.65;5.03;;;;;;;-0.16;92.98;100042.69;4979459;28;20493;-72
2021/12/09 01:24:59;;;;;;;21.77;6.13;;;;;;;-0.17;93.57;100048.69;4984270;28;20500;-71
2021/12/09 01:27:25;;;;;;;17.95;5.75;;;;;;;-0.17;93.37;100041.88;4985219;28;20026;-71
2021/12/09 01:29:54;;;;;;;23.17;7.18;;;;;;;-0.14;92.67;100043.41;4983177;28;20038;-72
2021/12/09 01:32:26;;;;;;;14.13;5.30;;;;;;;-0.20;93.11;100049.72;4983426;28;20042;-71
2021/12/09 01:34:52;;;;;;;13.48;5.90;;;;;;;-0.20;93.14;100048.00;4982689;28;20038;-71
2021/12/09 01:37:18;;;;;;;16.77;5.22;;;;;;;-0.23;93.74;100048.22;4984212;28;20074;-72
2021/12/09 01:39:43;;;;;;;20.20;5.40;;;;;;;-0.25;93.74;100052.56;4982505;28;20068;-73
2021/12/09 01:42:09;;;;;;;15.55;5.07;;;;;;;-0.26;93.70;100050.16;4984549;28;20030;-72
2021/12/09 01:44:35;;;;;;;15.93;4.80;;;;;;;-0.29;93.70;100056.25;4985071;28;20058;-71
2021/12/09 01:47:00;;;;;;;17.58;5.65;;;;;;;-0.33;93.69;100062.47;4983222;28;20038;-71
2021/12/09 01:49:26;;;;;;;19.02;5.80;;;;;;;-0.34;93.77;100065.97;4982247;28;20042;-71
2021/12/09 01:51:51;;;;;;;19.42;5.70;;;;;;;-0.28;93.69;100057.91;4980647;28;20452;-71
2021/12/09 01:54:18;;;;;;;17.27;5.07;;;;;;;-0.30;93.23;100066.53;4982724;28;20058;-70
2021/12/09 01:56:44;;;;;;;19.15;6.03;;;;;;;-0.33;93.67;100066.78;4981421;28;20053;-71
2021/12/09 01:59:10;;;;;;;18.35;6.00;;;;;;;-0.32;93.93;100064.13;4973658;28;20385;-71
2021/12/09 02:01:36;;;;;;;13.63;6.13;;;;;;;-0.37;93.40;100057.72;4976787;28;20041;-71
2021/12/09 02:04:06;;;;;;;12.10;5.10;;;;;;;-0.43;93.68;100064.03;4979287;28;20038;-72
2021/12/09 02:06:33;;;;;;;12.85;4.93;;;;;;;-0.46;94.27;100061.69;4970143;28;20026;-71
2021/12/09 02:08:59;;;;;;;21.50;6.03;;;;;;;-0.49;94.43;100065.25;4986109;28;20161;-71
2021/12/09 02:11:24;;;;;;;15.50;5.18;;;;;;;-0.52;94.52;100062.09;4982654;28;20054;-71
2021/12/09 02:13:52;;;;;;;17.55;5.75;;;;;;;-0.52;94.13;100062.91;4982350;28;20326;-71
2021/12/09 02:16:17;;;;;;;18.98;5.38;;;;;;;-0.54;94.34;100062.19;4962428;28;20034;-71
2021/12/09 02:18:43;;;;;;;22.95;6.43;;;;;;;-0.57;94.25;100066.69;4984082;28;20136;-71
2021/12/09 02:21:17;;;;;;;20.45;6.47;;;;;;;-0.57;94.30;100059.03;4985777;28;20046;-70
2021/12/09 02:23:46;;;;;;;13.25;5.45;;;;;;;-0.59;94.25;100065.03;4982203;28;20389;-72
2021/12/09 02:26:14;;;;;;;18.23;5.68;;;;;;;-0.61;94.37;100061.78;4984797;28;20031;-71
2021/12/09 02:28:40;;;;;;;19.20;6.22;;;;;;;-0.61;94.72;100066.88;4990860;28;20026;-71
2021/12/09 02:31:06;;;;;;;15.68;6.18;;;;;;;-0.62;94.68;100062.72;4990541;28;20033;-71
2021/12/09 02:33:32;;;;;;;16.73;5.80;;;;;;;-0.64;95.05;100062.00;4995212;28;20038;-71
2021/12/09 02:35:57;;;;;;;13.10;5.40;;;;;;;-0.64;94.71;100064.53;4988055;28;20069;-71
2021/12/09 02:38:23;;;;;;;20.25;6.68;;;;;;;-0.67;95.22;100058.84;4982710;28;20045;-71
2021/12/09 02:40:50;;;;;;;17.17;5.75;;;;;;;-0.68;95.01;100065.66;4980864;28;20034;-71
2021/12/09 02:43:22;;;;;;;20.45;6.25;;;;;;;-0.70;95.22;100071.75;4987828;28;20125;-71
2021/12/09 02:45:52;;;;;;;;;;;;;;;-0.70;94.73;100067.47;4975055;28;20500;-71
2021/12/09 02:48:19;;;;;;;22.75;6.13;;;;;;;-0.72;95.30;100064.22;4980837;28;19964;-71
2021/12/09 02:50:45;;;;;;;20.50;5.60;;;;;;;-0.73;94.88;100066.91;4981243;28;20049;-71
2021/12/09 02:53:11;;;;;;;18.33;5.32;;;;;;;-0.76;94.80;100067.88;4972439;28;20034;-71
2021/12/09 02:55:37;;;;;;;14.25;5.35;;;;;;;-0.79;94.81;100066.38;4975574;28;20029;-71
2021/12/09 02:58:03;;;;;;;13.35;5.45;;;;;;;-0.79;95.14;100066.38;4977167;28;20124;-71
2021/12/09 03:00:30;;;;;;;14.05;5.55;;;;;;;-0.80;94.86;100069.00;4988241;28;20092;-72
2021/12/09 03:02:57;;;;;;;16.00;5.40;;;;;;;-0.83;95.26;100066.66;4972686;28;20034;-71
2021/12/09 03:05:23;;;;;;;15.00;5.80;;;;;;;-0.86;95.11;100067.69;4986673;28;20081;-72
2021/12/09 03:07:50;;;;;;;10.95;5.05;;;;;;;-0.88;95.04;100066.16;4987098;28;20034;-71
2021/12/09 03:10:24;;;;;;;15.32;5.45;;;;;;;-0.90;95.41;100066.25;4988459;28;20119;-71
2021/12/09 03:13:00;;;;;;;13.32;5.57;;;;;;;-0.92;95.08;100072.34;4980345;28;20484;-71
2021/12/09 03:15:26;;;;;;;16.20;5.47;;;;;;;-0.94;95.43;100069.94;4982646;28;20034;-71
2021/12/09 03:17:52;;;;;;;15.52;5.85;;;;;;;-0.94;94.96;100066.53;4983390;28;20030;-72
2021/12/09 03:20:20;;;;;;;16.45;6.07;;;;;;;-0.99;94.75;100059.22;4985427;28;20034;-71
2021/12/09 03:22:47;;;;;;;17.30;5.55;;;;;;;-1.04;95.04;100059.50;4987761;28;20038;-71
2021/12/09 03:25:15;;;;;;;16.75;5.63;;;;;;;-1.09;94.95;100071.72;4980551;28;20030;-70
2021/12/09 03:27:40;;;;;;;16.08;5.55;;;;;;;-1.09;95.29;100055.63;4983356;28;20037;-71
2021/12/09 03:30:10;;;;;;;12.70;5.50;;;;;;;-1.04;95.11;100068.88;4988041;28;20034;-71
2021/12/09 03:32:36;;;;;;;17.77;6.43;;;;;;;-1.08;94.79;100064.91;4993401;28;20057;-71
2021/12/09 03:35:03;;;;;;;14.82;5.13;;;;;;;-1.12;94.77;100073.66;4983052;28;20030;-72
2021/12/09 03:37:28;;;;;;;15.02;5.25;;;;;;;-1.16;95.15;100067.94;4980572;28;20088;-71
2021/12/09 03:39:55;;;;;;;13.38;5.43;;;;;;;-1.18;95.08;100062.94;4983142;28;20544;-71
2021/12/09 03:42:25;;;;;;;19.27;5.60;;;;;;;-1.20;94.88;100069.06;4985928;28;20044;-71
2021/12/09 03:44:52;;;;;;;29.55;5.43;;;;;;;-1.21;94.99;100060.59;4981296;28;20057;-70
2021/12/09 03:47:21;;;;;;;15.27;5.65;;;;;;;-1.23;94.80;100062.41;4979725;28;20440;-71
2021/12/09 03:49:47;;;;;;;17.20;5.63;;;;;;;-1.27;95.17;100053.34;4987681;28;20041;-71
2021/12/09 03:52:13;;;;;;;17.63;5.85;;;;;;;-1.29;95.14;100057.72;4981648;28;20042;-71
2021/12/09 03:54:40;;;;;;;17.52;5.38;;;;;;;-1.23;95.10;100054.78;4982177;28;20477;-70
2021/12/09 03:57:06;;;;;;;20.85;5.40;;;;;;;-1.28;95.16;100056.00;4983335;28;20038;-73
2021/12/09 03:59:32;;;;;;;15.27;5.72;;;;;;;-1.30;95.62;100060.38;4982138;28;20046;-72
2021/12/09 04:01:58;;;;;;;13.50;5.55;;;;;;;-1.33;95.47;100066.47;4984466;28;20081;-73
2021/12/09 04:04:24;;;;;;;14.93;5.57;;;;;;;-1.33;95.75;100063.13;4983385;28;20058;-70
2021/12/09 04:06:50;;;;;;;18.40;5.43;;;;;;;-1.32;95.76;100057.91;4984305;28;20665;-70
2021/12/09 04:09:18;;;;;;;19.10;5.80;;;;;;;-1.32;95.94;100059.66;4987796;28;20036;-70
2021/12/09 04:11:43;;;;;;;13.30;5.28;;;;;;;-1.34;96.04;100057.19;4986351;28;20069;-70
2021/12/09 04:14:09;;;;;;;16.58;5.30;;;;;;;-1.31;95.92;100056.22;4983273;28;20030;-72
2021/12/09 04:16:36;;;;;;;17.00;5.25;;;;;;;-1.32;96.40;100050.28;4987585;28;20034;-70
2021/12/09 04:19:06;;;;;;;19.73;5.22;;;;;;;-1.32;96.73;100060.47;4989298;28;20432;-70
2021/12/09 04:21:33;;;;;;;17.08;5.10;;;;;;;-1.20;96.61;100057.16;4978832;28;20064;-70
2021/12/09 04:23:59;;;;;;;12.40;4.82;;;;;;;-1.26;96.56;100064.34;4986652;28;20026;-71
2021/12/09 04:26:26;;;;;;;14.70;4.85;;;;;;;-1.34;96.60;100059.75;4985939;28;20038;-71
2021/12/09 04:28:51;;;;;;;22.27;6.63;;;;;;;-1.37;96.63;100065.03;4986379;28;20385;-70
2021/12/09 04:31:17;;;;;;;13.10;5.18;;;;;;;-1.41;96.93;100068.69;4983409;28;20042;-70
2021/12/09 04:33:44;;;;;;;10.82;4.30;;;;;;;-1.44;96.81;100074.78;4982551;28;20042;-72
2021/12/09 04:36:10;;;;;;;15.00;5.25;;;;;;;-1.45;97.00;100080.78;4983166;28;20062;-71
2021/12/09 04:38:36;;;;;;;17.10;5.40;;;;;;;-1.46;96.74;100080.88;4979212;28;20034;-70
2021/12/09 04:41:02;;;;;;;14.90;4.47;;;;;;;-1.49;97.04;100094.59;4983535;28;20026;-70
2021/12/09 04:43:27;;;;;;;16.08;5.32;;;;;;;-1.50;96.94;100090.41;4984443;28;20177;-70
2021/12/09 04:45:53;;;;;;;18.70;5.75;;;;;;;-1.52;97.09;100089.72;4980417;28;20038;-71
2021/12/09 04:48:18;;;;;;;14.13;5.18;;;;;;;-1.55;97.27;100097.50;4985963;28;20065;-70
2021/12/09 04:50:44;;;;;;;19.20;5.07;;;;;;;-1.59;97.10;100091.81;4986473;28;20061;-69
2021/12/09 04:53:11;;;;;;;12.75;4.97;;;;;;;-1.59;97.08;100096.06;4985142;28;20041;-70
2021/12/09 04:55:37;;;;;;;14.70;5.13;;;;;;;-1.61;97.32;100100.44;4987279;28;20055;-70
2021/12/09 04:58:03;;;;;;;12.23;4.65;;;;;;;-1.57;97.20;100104.44;4987319;28;20587;-70
2021/12/09 05:00:31;;;;;;;16.52;5.18;;;;;;;-1.60;97.05;100105.44;4982977;28;20420;-71
2021/12/09 05:05:23;;;;;;;21.98;5.63;;;;;;;-1.54;97.28;100108.50;4981831;28;20460;-70
2021/12/09 05:07:48;;;;;;;12.57;4.35;;;;;;;-1.52;97.33;100109.25;4981213;28;20061;-70
2021/12/09 05:10:15;;;;;;;11.52;4.88;;;;;;;-1.54;97.31;100109.34;4976083;28;20092;-71
2021/12/09 05:12:40;;;;;;;15.85;5.30;;;;;;;-1.58;97.73;100108.72;4981814;28;20030;-71
2021/12/09 05:15:06;;;;;;;16.27;5.25;;;;;;;-1.52;97.56;100117.69;4977928;28;20034;-70
2021/12/09 05:17:32;;;;;;;17.90;5.45;;;;;;;-1.54;97.71;100127.13;4982759;28;20691;-71
2021/12/09 05:19:57;;;;;;;12.77;4.60;;;;;;;-1.58;97.64;100129.03;4983706;28;20065;-71
2021/12/09 05:22:23;;;;;;;16.23;4.93;;;;;;;-1.61;98.04;100131.75;4984774;28;20042;-70
2021/12/09 05:24:50;;;;;;;17.75;5.60;;;;;;;-1.60;98.12;100127.50;4980716;28;20030;-70
2021/12/09 05:27:17;;;;;;;15.55;4.90;;;;;;;-1.60;98.00;100135.97;4989950;28;20517;-71
2021/12/09 05:29:44;;;;;;;19.40;4.88;;;;;;;-1.54;98.25;100132.22;4985566;28;20030;-70
2021/12/09 05:32:13;;;;;;;15.40;4.75;;;;;;;-1.52;98.34;100129.59;4988332;28;20046;-71
2021/12/09 05:34:41;;;;;;;21.45;5.20;;;;;;;-1.48;98.04;100142.00;4985244;28;20049;-70
2021/12/09 05:37:10;;;;;;;16.02;5.32;;;;;;;-1.55;98.21;100140.75;4986668;28;20035;-70
2021/12/09 05:39:39;;;;;;;14.48;5.07;;;;;;;-1.60;98.21;100142.75;4983899;28;20046;-70
2021/12/09 05:42:06;;;;;;;21.33;6.10;;;;;;;-1.54;98.14;100146.63;4982025;28;20030;-70
2021/12/09 05:44:32;;;;;;;19.48;5.18;;;;;;;-1.60;98.31;100150.38;4990505;28;20045;-70
2021/12/09 05:46:58;;;;;;;20.85;6.05;;;;;;;-1.61;98.48;100153.84;4990117;28;20034;-70
2021/12/09 05:49:24;;;;;;;15.85;5.40;;;;;;;-1.67;98.39;100152.50;4970498;28;20041;-71
2021/12/09 05:51:51;;;;;;;22.73;5.93;;;;;;;-1.71;98.13;100150.22;4986314;28;20413;-71
2021/12/09 05:54:17;;;;;;;14.43;5.97;;;;;;;-1.71;98.54;100147.66;4987858;28;20480;-70
2021/12/09 05:56:42;;;;;;;22.20;6.05;;;;;;;-1.74;98.50;100142.78;4978702;28;20031;-70
2021/12/09 05:59:09;;;;;;;19.30;5.85;;;;;;;-1.76;98.52;100150.50;4980420;28;20492;-72
2021/12/09 06:01:36;;;;;;;14.75;5.65;;;;;;;-1.80;98.60;100162.56;4990413;28;20030;-70
2021/12/09 06:04:03;;;;;;;14.73;5.97;;;;;;;-1.84;98.54;100161.13;4980214;28;20058;-70
2021/12/09 06:06:29;;;;;;;16.95;5.13;;;;;;;-1.85;98.55;100164.56;5002837;28;21586;-70
2021/12/09 06:08:55;;;;;;;14.77;5.97;;;;;;;-1.86;98.80;100169.78;4987578;28;20062;-70
2021/12/09 06:11:21;;;;;;;18.73;6.20;;;;;;;-1.85;98.58;100171.38;4988708;28;20037;-71
2021/12/09 06:13:48;;;;;;;15.63;5.70;;;;;;;-1.82;98.86;100169.47;4985520;28;20528;-71
2021/12/09 06:16:13;;;;;;;20.55;5.88;;;;;;;-1.84;98.87;100168.75;4987277;28;20040;-70
2021/12/09 06:18:39;;;;;;;27.58;7.10;;;;;;;-1.89;98.66;100167.41;4968055;28;20042;-70
2021/12/09 06:21:05;;;;;;;21.30;5.65;;;;;;;-1.90;98.62;100174.22;4982457;28;20031;-70
2021/12/09 06:23:31;;;;;;;18.98;5.45;;;;;;;-1.93;98.55;100176.94;4982865;28;20416;-71
2021/12/09 06:25:56;;;;;;;24.60;6.07;;;;;;;-1.96;98.38;100172.84;4979453;28;20050;-70
2021/12/09 06:28:22;;;;;;;17.10;6.40;;;;;;;-1.98;98.75;100178.91;4981537;28;20035;-71
2021/12/09 06:30:47;;;;;;;18.13;6.07;;;;;;;-1.97;98.60;100188.19;4989121;28;20026;-70
2021/12/09 06:33:13;;;;;;;19.48;5.78;;;;;;;-1.94;98.62;100187.19;4981518;28;20788;-71
2021/12/09 06:35:39;;;;;;;12.60;5.53;;;;;;;-1.84;98.42;100194.19;4987109;28;20030;-71
2021/12/09 06:38:08;;;;;;;20.85;5.97;;;;;;;-1.68;98.32;100191.53;4979933;28;20069;-71
2021/12/09 06:40:34;;;;;;;30.67;5.40;;;;;;;-1.72;98.04;100194.34;4987851;28;20034;-70
2021/12/09 06:42:59;;;;;;;24.65;7.38;;;;;;;-1.68;98.64;100193.25;4987782;28;20481;-70
2021/12/09 06:45:25;;;;;;;16.88;6.13;;;;;;;-1.76;98.81;100198.81;4989282;28;20030;-70
2021/12/09 06:47:51;;;;;;;17.13;5.90;;;;;;;-1.82;98.94;100189.81;4984279;28;20444;-71
2021/12/09 06:50:19;;;;;;;11.68;5.70;;;;;;;-1.83;99.05;100185.66;4970465;28;20076;-70
2021/12/09 06:52:45;;;;;;;18.58;6.13;;;;;;;-1.89;98.85;100177.56;4986739;28;20038;-70
2021/12/09 06:55:14;;;;;;;18.67;6.20;;;;;;;-1.94;99.01;100189.72;4980843;28;20018;-71
2021/12/09 06:57:44;;;;;;;22.13;5.75;;;;;;;-1.97;99.27;100181.38;4964794;28;20061;-70
2021/12/09 07:00:19;;;;;;;17.42;6.72;;;;;;;-2.00;99.10;100183.28;4977389;28;20034;-71
2021/12/09 07:02:45;;;;;;;25.65;6.82;;;;;;;-2.04;99.31;100187.72;4982739;28;20046;-70
2021/12/09 07:05:11;;;;;;;19.02;6.25;;;;;;;-2.06;99.24;100191.25;4979832;28;20034;-70
2021/12/09 07:07:38;;;;;;;24.25;5.93;;;;;;;-2.07;99.32;100198.06;4981664;28;20034;-71
2021/12/09 07:10:06;;;;;;;18.95;5.85;;;;;;;-2.09;99.32;100191.44;4981194;28;20042;-70
2021/12/09 07:12:34;;;;;;;20.20;6.40;;;;;;;-2.05;99.16;100192.91;4990004;28;20045;-70
2021/12/09 07:15:00;;;;;;;18.08;6.78;;;;;;;-2.08;99.31;100195.63;4988831;28;20034;-70
2021/12/09 07:17:25;;;;;;;16.45;5.03;;;;;;;-2.13;99.26;100200.94;4988488;28;20026;-70
2021/12/09 07:19:51;;;;;;;16.08;5.55;;;;;;;-2.19;99.43;100199.59;4983490;28;20036;-70
2021/12/09 07:22:16;;;;;;;15.77;6.45;;;;;;;-2.19;99.02;100203.84;4988069;28;20041;-71
2021/12/09 07:24:42;;;;;;;19.27;6.63;;;;;;;-2.23;99.08;100202.41;4966836;28;20435;-70
2021/12/09 07:27:07;;;;;;;14.27;5.88;;;;;;;-2.26;99.01;100195.78;4983883;28;20080;-71
2021/12/09 07:29:33;;;;;;;13.65;7.20;;;;;;;-2.25;99.07;100197.41;4982293;28;20149;-69
2021/12/09 07:31:58;;;;;;;20.52;6.35;;;;;;;-2.26;99.09;100195.78;4987499;28;20042;-70
2021/12/09 07:34:24;;;;;;;16.52;6.63;;;;;;;-2.27;99.15;100196.69;4964130;28;20086;-70
2021/12/09 07:36:49;;;;;;;28.55;8.75;;;;;;;-2.19;99.10;100202.13;4984238;28;20370;-70
2021/12/09 07:39:15;;;;;;;23.95;7.18;;;;;;;-2.16;99.38;100191.78;4987900;28;20042;-72
2021/12/09 07:41:40;;;;;;;26.05;8.90;;;;;;;-2.00;99.29;100195.97;4982198;28;20112;-70
2021/12/09 07:44:06;;;;;;;30.92;9.35;;;;;;;-1.92;99.82;100200.59;4985568;28;20590;-71
2021/12/09 07:46:34;;;;;;;21.15;6.97;;;;;;;-1.80;99.91;100195.63;4984494;28;20033;-71
2021/12/09 07:49:01;;;;;;;21.25;6.18;;;;;;;-1.71;100.00;100193.44;4987858;28;20053;-70
2021/12/09 07:51:26;;;;;;;19.95;5.28;;;;;;;-1.62;100.00;100191.19;4985197;28;20050;-71
2021/12/09 07:53:52;;;;;;;17.83;4.97;;;;;;;-1.58;100.00;100189.28;4983466;28;20037;-73
2021/12/09 07:56:18;;;;;;;55.58;18.45;;;;;;;-1.48;100.00;100189.53;4980164;28;20046;-71
2021/12/09 07:58:44;;;;;;;21.05;6.93;;;;;;;-1.33;100.00;100186.03;4978147;28;20031;-70
2021/12/09 08:01:10;;;;;;;23.98;6.90;;;;;;;-1.30;100.00;100190.94;4980042;28;20065;-71
2021/12/09 08:03:36;;;;;;;27.80;9.65;;;;;;;-1.12;100.00;100195.81;4978457;28;20039;-70
2021/12/09 08:06:03;;;;;;;26.05;10.30;;;;;;;-1.09;100.00;100193.88;4982949;28;20061;-70
2021/12/09 08:08:28;;;;;;;30.15;9.38;;;;;;;-1.11;100.00;100200.81;4989368;28;20045;-72
2021/12/09 08:10:54;;;;;;;34.83;12.32;;;;;;;-0.92;100.00;100203.00;4967357;28;20466;-71
2021/12/09 08:13:22;;;;;;;29.63;10.88;;;;;;;-0.71;100.00;100202.56;4988423;28;20046;-71
2021/12/09 08:15:49;;;;;;;35.17;9.15;;;;;;;-0.56;100.00;100203.31;4988304;28;20148;-71
2021/12/09 08:20:44;;;;;;;30.85;11.57;;;;;;;-0.30;100.00;100193.94;4984898;28;20081;-71
2021/12/09 08:23:10;;;;;;;23.50;8.88;;;;;;;-0.38;100.00;100194.44;4983679;28;20030;-71
2021/12/09 08:25:36;;;;;;;29.48;10.93;;;;;;;-0.38;100.00;100188.56;4978413;28;20042;-71
2021/12/09 08:28:01;;;;;;;32.28;13.52;;;;;;;-0.29;100.00;100198.94;4982689;28;20030;-72
2021/12/09 08:30:27;;;;;;;29.83;10.32;;;;;;;-0.18;100.00;100207.63;4986738;28;20061;-72
2021/12/09 08:32:53;;;;;;;19.58;8.27;;;;;;;-0.02;99.83;100206.53;4980125;28;20043;-71
2021/12/09 08:35:20;;;;;;;30.75;9.30;;;;;;;0.01;99.29;100202.94;4984199;28;20413;-72
2021/12/09 08:37:46;;;;;;;57.22;17.73;;;;;;;0.14;98.90;100208.84;4988061;28;20401;-72
2021/12/09 08:40:13;;;;;;;34.42;9.88;;;;;;;0.19;98.82;100209.38;4987386;28;20030;-72
2021/12/09 08:42:39;;;;;;;23.85;8.75;;;;;;;0.30;98.02;100211.19;4982545;28;20089;-71
2021/12/09 08:45:08;;;;;;;20.35;7.57;;;;;;;0.36;97.13;100208.22;4985514;28;20045;-71
2021/12/09 08:47:35;;;;;;;27.80;10.23;;;;;;;0.34;97.06;100214.31;4985926;28;20046;-71
2021/12/09 08:50:01;;;;;;;18.90;8.43;;;;;;;0.23;97.39;100215.06;4987784;28;20432;-71
2021/12/09 08:52:26;;;;;;;21.50;7.03;;;;;;;0.27;97.60;100221.59;4981055;28;20037;-72
2021/12/09 08:54:52;;;;;;;24.13;7.78;;;;;;;0.38;97.61;100223.44;4979390;28;20467;-72
2021/12/09 08:57:19;;;;;;;25.13;7.28;;;;;;;0.53;96.74;100232.59;4983915;28;20027;-72
2021/12/09 08:59:45;;;;;;;13.00;5.95;;;;;;;0.48;97.31;100228.72;4985446;28;20046;-72
2021/12/09 09:02:11;;;;;;;16.77;6.40;;;;;;;0.54;97.33;100235.94;4985753;28;20077;-72
2021/12/09 09:04:37;;;;;;;20.40;5.55;;;;;;;0.64;97.18;100225.91;4984202;28;20525;-71
2021/12/09 09:07:03;;;;;;;20.92;5.93;;;;;;;0.65;96.55;100227.56;4983156;28;20030;-71
2021/12/09 09:09:33;;;;;;;18.92;6.05;;;;;;;0.56;96.90;100229.00;4990126;28;20132;-73
2021/12/09 09:12:03;;;;;;;17.00;6.35;;;;;;;0.62;96.95;100226.00;4962817;28;20045;-72
2021/12/09 09:14:29;;;;;;;14.45;5.63;;;;;;;0.77;96.44;100229.25;4992971;28;20033;-71
2021/12/09 09:16:54;;;;;;;21.67;6.47;;;;;;;0.93;96.21;100231.56;4987870;28;20061;-72
2021/12/09 09:19:20;;;;;;;19.20;5.68;;;;;;;1.04;95.34;100233.38;4985445;28;20041;-71
2021/12/09 09:21:47;;;;;;;15.85;5.50;;;;;;;1.10;95.09;100238.84;4986033;28;20038;-73
2021/12/09 09:24:12;;;;;;;18.35;6.40;;;;;;;1.10;95.30;100246.50;4979424;28;20049;-72
2021/12/09 09:26:38;;;;;;;18.42;5.75;;;;;;;1.20;94.25;100239.00;4988745;28;20038;-73
2021/12/09 09:29:04;;;;;;;17.75;6.05;;;;;;;1.19;94.42;100239.94;4985592;28;20030;-72
2021/12/09 09:31:32;;;;;;;19.13;5.78;;;;;;;1.25;94.36;100234.38;4987324;28;20125;-72
2021/12/09 09:34:05;;;;;;;22.08;6.63;;;;;;;1.28;95.05;100241.00;4990280;28;20088;-72
2021/12/09 09:36:31;;;;;;;16.73;6.55;;;;;;;1.40;94.18;100239.34;4990405;28;20124;-73
2021/12/09 09:39:06;;;;;;;17.95;6.45;;;;;;;1.44;94.53;100248.41;4984599;28;20076;-72
2021/12/09 09:41:35;;;;;;;20.38;7.38;;;;;;;1.50;94.42;100251.31;4989383;28;20418;-73
2021/12/09 09:44:16;;;;;;;23.42;6.30;;;;;;;1.70;93.95;100249.88;4983712;28;20147;-71
2021/12/09 09:46:43;;;;;;;18.80;5.75;;;;;;;1.80;93.92;100247.47;4991595;28;20034;-73
2021/12/09 09:49:10;;;;;;;20.02;6.63;;;;;;;1.85;93.40;100252.25;4986532;28;20136;-71
2021/12/09 09:51:37;;;;;;;15.40;5.30;;;;;;;1.75;93.58;100252.91;4983239;28;20045;-71
2021/12/09 09:54:04;;;;;;;16.70;5.72;;;;;;;1.87;93.93;100247.84;4978645;28;20416;-71
2021/12/09 09:56:31;;;;;;;15.50;5.18;;;;;;;1.94;93.06;100249.81;4988795;28;20072;-71
2021/12/09 09:59:06;;;;;;;20.55;5.97;;;;;;;1.94;93.19;100251.53;4965965;28;20151;-72
2021/12/09 10:01:40;;;;;;;17.95;5.78;;;;;;;2.04;93.13;100251.69;4970778;28;20138;-71
2021/12/09 10:04:20;;;;;;;22.17;6.07;;;;;;;2.18;92.08;100243.78;4982269;28;20058;-71
2021/12/09 10:06:47;;;;;;;14.90;5.80;;;;;;;2.29;91.67;100248.09;4985477;28;20087;-71
2021/12/09 10:09:16;;;;;;;21.13;5.75;;;;;;;2.22;91.19;100246.94;5002132;28;20422;-72
2021/12/09 10:11:41;;;;;;;21.83;5.80;;;;;;;2.32;90.81;100246.13;4981475;28;20030;-71
2021/12/09 10:14:14;;;;;;;16.23;5.50;;;;;;;2.24;90.81;100245.06;4984399;28;20121;-73
2021/12/09 10:16:41;;;;;;;22.45;6.05;;;;;;;2.16;91.49;100255.88;4982875;28;20035;-71
2021/12/09 10:19:21;;;;;;;20.27;5.40;;;;;;;2.28;91.54;100246.47;4989128;28;20038;-73
2021/12/09 10:21:49;;;;;;;17.15;5.25;;;;;;;2.32;90.81;100243.56;4983259;28;20038;-73
2021/12/09 10:24:17;;;;;;;19.05;4.97;;;;;;;2.36;91.18;100236.47;4980111;28;20142;-71
2021/12/09 10:26:47;;;;;;;16.27;4.90;;;;;;;2.33;91.07;100239.28;4979143;28;20084;-72
2021/12/09 10:32:00;;;;;;;14.57;4.68;;;;;;;2.36;91.93;100235.69;4984949;28;20068;-72
2021/12/09 10:37:25;;;;;;;9.77;4.60;;;;;;;2.57;90.09;100222.97;4986416;28;20049;-72
2021/12/09 10:39:50;;;;;;;22.88;6.05;;;;;;;2.58;90.12;100219.47;4974660;28;20085;-71
2021/12/09 10:42:32;;;;;;;15.48;4.93;;;;;;;2.52;89.53;100215.63;4983268;28;20129;-72
2021/12/09 10:45:14;;;;;;;12.05;4.55;;;;;;;2.52;90.63;100220.75;4981674;28;20035;-72
2021/12/09 10:47:52;;;;;;;16.00;5.03;;;;;;;2.54;90.71;100218.88;4987047;28;20038;-71
2021/12/09 10:53:01;;;;;;;18.52;4.75;;;;;;;2.85;88.74;100211.41;4982206;28;20039;-71
2021/12/09 10:55:30;;;;;;;22.50;4.72;;;;;;;2.67;89.44;100216.22;4986819;28;20489;-71
2021/12/09 10:58:17;;;;;;;19.42;4.38;;;;;;;2.84;88.61;100214.91;4986837;28;20373;-72
2021/12/09 11:00:52;;;;;;;13.13;4.05;;;;;;;3.03;87.71;100216.81;4986749;28;20045;-72
2021/12/09 11:03:34;;;;;;;15.00;4.10;;;;;;;2.92;88.17;100205.69;4985660;28;20100;-72
2021/12/09 11:06:08;;;;;;;10.98;3.88;;;;;;;2.85;88.77;100208.84;4979276;28;20026;-73
2021/12/09 11:08:41;;;;;;;15.82;4.93;;;;;;;2.83;87.97;100198.72;4983604;28;20045;-72
2021/12/09 11:11:11;;;;;;;9.60;3.88;;;;;;;2.96;87.35;100185.78;4980244;28;20448;-72
2021/12/09 11:13:52;;;;;;;12.65;4.45;;;;;;;3.07;86.10;100180.59;4984623;28;20121;-71
2021/12/09 11:16:27;;;;;;;11.50;3.65;;;;;;;3.12;86.43;100180.22;4984454;28;20026;-73
2021/12/09 11:19:03;;;;;;;17.52;4.60;;;;;;;3.18;86.27;100184.03;4979299;28;20058;-71
2021/12/09 11:21:33;;;;;;;17.30;4.68;;;;;;;3.12;86.59;100177.66;4983434;28;20034;-72
2021/12/09 11:24:06;;;;;;;16.00;4.43;;;;;;;3.22;86.21;100175.16;4989533;28;20396;-72
2021/12/09 11:26:51;;;;;;;9.40;3.67;;;;;;;3.20;85.94;100170.19;4985016;28;20030;-72
2021/12/09 11:29:18;;;;;;;8.35;4.00;;;;;;;3.24;86.48;100160.47;4980431;28;20078;-72
2021/12/09 11:32:28;;;;;;;10.00;5.25;;;;;;;3.35;85.44;100175.81;4981367;28;20035;-71
2021/12/09 11:35:02;;;;;;;14.00;4.68;;;;;;;3.28;85.39;100172.13;4989007;28;20046;-72